createdAt,value
2018-02-10T00:02:11.789Z,26.52
2018-02-10T00:04:39.482Z,23.58
2018-02-10T00:07:07.166Z,25.85
2018-02-10T00:09:34.886Z,22.42
2018-02-10T00:12:02.574Z,26.75
2018-02-10T00:14:30.444Z,23.42
2018-02-10T00:16:58.121Z,27.05
2018-02-10T00:19:25.914Z,21.83
2018-02-10T00:21:53.678Z,19.95
2018-02-10T00:24:21.384Z,21.80
2018-02-10T00:26:49.056Z,25.52
2018-02-10T00:29:16.755Z,25.67
2018-02-10T00:31:44.519Z,31.13
2018-02-10T00:34:12.183Z,22.67
2018-02-10T00:36:39.846Z,23.83
2018-02-10T00:39:07.557Z,24.08
2018-02-10T00:41:35.265Z,20.55
2018-02-10T00:44:02.978Z,30.65
2018-02-10T00:46:31.297Z,25.42
2018-02-10T00:48:59.002Z,26.73
2018-02-10T00:51:26.687Z,20.98
2018-02-10T00:53:54.386Z,22.60
2018-02-10T00:56:22.065Z,23.23
2018-02-10T00:58:49.767Z,22.92
2018-02-10T01:01:17.442Z,25.08
2018-02-10T01:03:45.167Z,28.20
2018-02-10T01:06:12.846Z,27.08
2018-02-10T01:08:40.562Z,24.20
2018-02-10T01:11:08.234Z,27.98
2018-02-10T01:13:35.946Z,28.10
2018-02-10T01:16:03.677Z,34.45
2018-02-10T01:18:31.395Z,23.75
2018-02-10T01:20:59.087Z,29.05
2018-02-10T01:23:26.781Z,20.62
2018-02-10T01:25:54.514Z,33.00
2018-02-10T01:28:22.209Z,26.80
2018-02-10T01:30:49.894Z,26.10
2018-02-10T01:33:17.570Z,25.20
2018-02-10T01:35:45.309Z,28.42
2018-02-10T01:38:13.038Z,28.45
2018-02-10T01:40:40.765Z,25.08
2018-02-10T01:43:08.497Z,31.65
2018-02-10T01:45:36.187Z,30.27
2018-02-10T01:48:03.892Z,25.90
2018-02-10T01:50:31.769Z,34.85
2018-02-10T01:52:59.461Z,26.40
2018-02-10T01:55:27.238Z,25.27
2018-02-10T01:57:54.946Z,27.00
2018-02-10T02:00:22.617Z,29.17
2018-02-10T02:02:50.365Z,46.50
2018-02-10T02:05:18.038Z,28.67
2018-02-10T02:07:45.774Z,29.70
2018-02-10T02:10:13.482Z,32.30
2018-02-10T02:12:41.171Z,30.73
2018-02-10T02:15:08.853Z,33.20
2018-02-10T02:17:36.675Z,31.67
2018-02-10T02:20:04.361Z,26.62
2018-02-10T02:22:32.046Z,37.80
2018-02-10T02:24:59.754Z,26.10
2018-02-10T02:27:27.442Z,34.92
2018-02-10T02:29:55.148Z,29.10
2018-02-10T02:32:22.818Z,31.55
2018-02-10T02:34:50.539Z,33.38
2018-02-10T02:37:18.206Z,29.63
2018-02-10T02:39:45.906Z,29.42
2018-02-10T02:42:13.632Z,31.20
2018-02-10T02:44:41.305Z,31.33
2018-02-10T02:47:08.997Z,32.35
2018-02-10T02:49:36.708Z,30.42
2018-02-10T02:52:04.420Z,28.25
2018-02-10T02:54:32.118Z,34.05
2018-02-10T02:56:59.842Z,27.10
2018-02-10T02:59:27.601Z,31.62
2018-02-10T03:01:55.298Z,38.40
2018-02-10T03:04:23.001Z,29.83
2018-02-10T03:06:50.734Z,33.97
2018-02-10T03:09:18.437Z,33.67
2018-02-10T03:11:46.129Z,36.53
2018-02-10T03:14:13.878Z,37.83
2018-02-10T03:16:41.558Z,34.95
2018-02-10T03:19:09.245Z,37.70
2018-02-10T03:21:36.940Z,37.58
2018-02-10T03:24:04.704Z,33.22
2018-02-10T03:26:32.378Z,31.73
2018-02-10T03:29:00.081Z,34.40
2018-02-10T03:31:27.771Z,35.05
2018-02-10T03:33:55.483Z,30.95
2018-02-10T03:36:23.155Z,31.27
2018-02-10T03:38:50.857Z,32.60
2018-02-10T03:41:18.525Z,34.50
2018-02-10T03:43:46.230Z,34.33
2018-02-10T03:46:13.909Z,35.72
2018-02-10T03:48:41.609Z,40.25
2018-02-10T03:51:09.328Z,35.40
2018-02-10T03:53:37.034Z,37.97
2018-02-10T03:56:04.697Z,38.60
2018-02-10T03:58:32.483Z,42.45
2018-02-10T04:01:00.154Z,37.33
2018-02-10T04:03:27.870Z,34.58
2018-02-10T04:05:55.545Z,36.33
2018-02-10T04:08:23.271Z,36.63
2018-02-10T04:10:50.957Z,33.70
2018-02-10T04:13:18.786Z,37.50
2018-02-10T04:15:46.489Z,34.88
2018-02-10T04:18:14.110Z,37.63
2018-02-10T04:20:41.805Z,25.88
2018-02-10T04:23:09.479Z,33.47
2018-02-10T04:25:37.203Z,30.77
2018-02-10T04:28:04.818Z,36.00
2018-02-10T04:30:32.621Z,33.35
2018-02-10T04:33:00.310Z,39.08
2018-02-10T04:35:27.925Z,33.90
2018-02-10T04:37:55.545Z,34.83
2018-02-10T04:40:23.250Z,32.97
2018-02-10T04:42:50.878Z,35.93
2018-02-10T04:45:18.489Z,32.47
2018-02-10T04:47:46.213Z,31.67
2018-02-10T04:50:13.886Z,31.08
2018-02-10T04:52:41.589Z,32.60
2018-02-10T04:55:09.265Z,30.75
2018-02-10T04:57:36.895Z,35.87
2018-02-10T05:00:04.564Z,30.20
2018-02-10T05:02:32.196Z,34.07
2018-02-10T05:04:59.802Z,31.00
2018-02-10T05:07:27.502Z,31.73
2018-02-10T05:09:55.110Z,31.97
2018-02-10T05:12:22.756Z,28.07
2018-02-10T05:14:50.345Z,32.83
2018-02-10T05:17:17.992Z,32.23
2018-02-10T05:19:45.580Z,32.77
2018-02-10T05:22:13.222Z,28.10
2018-02-10T05:24:40.933Z,31.40
2018-02-10T05:27:08.694Z,27.55
2018-02-10T05:29:36.301Z,31.87
2018-02-10T05:32:04.001Z,29.42
2018-02-10T05:34:31.672Z,35.00
2018-02-10T05:36:59.462Z,33.92
2018-02-10T05:39:27.050Z,34.83
2018-02-10T05:41:54.746Z,39.27
2018-02-10T05:44:22.346Z,30.40
2018-02-10T05:46:49.977Z,30.40
2018-02-10T05:49:17.672Z,35.10
2018-02-10T05:51:45.420Z,33.35
2018-02-10T05:54:13.115Z,39.75
2018-02-10T05:56:40.840Z,29.10
2018-02-10T05:59:08.528Z,36.22
2018-02-10T06:01:36.217Z,34.40
2018-02-10T06:04:03.911Z,40.30
2018-02-10T06:06:31.670Z,27.70
2018-02-10T06:08:59.341Z,32.40
2018-02-10T06:11:27.018Z,34.45
2018-02-10T06:13:54.725Z,27.70
2018-02-10T06:16:22.450Z,26.58
2018-02-10T06:18:50.161Z,31.37
2018-02-10T06:21:17.895Z,27.23
2018-02-10T06:23:45.599Z,27.05
2018-02-10T06:26:13.290Z,30.55
2018-02-10T06:28:41.022Z,31.40
2018-02-10T06:31:08.703Z,26.65
2018-02-10T06:33:36.412Z,28.08
2018-02-10T06:36:04.205Z,28.08
2018-02-10T06:38:31.924Z,36.85
2018-02-10T06:40:59.613Z,33.78
2018-02-10T06:43:27.327Z,33.33
2018-02-10T06:45:55.058Z,34.42
2018-02-10T06:48:22.800Z,31.40
2018-02-10T06:50:50.522Z,34.17
2018-02-10T06:53:18.138Z,31.43
2018-02-10T06:55:45.817Z,30.33
2018-02-10T06:58:13.453Z,30.60
2018-02-10T07:00:41.126Z,25.88
2018-02-10T07:03:08.876Z,29.33
2018-02-10T07:05:37.444Z,28.67
2018-02-10T07:08:05.217Z,28.42
2018-02-10T07:10:32.797Z,39.73
2018-02-10T07:13:00.506Z,38.97
2018-02-10T07:15:28.200Z,35.22
2018-02-10T07:17:55.822Z,31.03
2018-02-10T07:20:23.515Z,33.92
2018-02-10T07:22:51.227Z,38.63
2018-02-10T07:25:18.901Z,35.50
2018-02-10T07:27:46.603Z,39.72
2018-02-10T07:30:14.306Z,33.67
2018-02-10T07:32:42.036Z,34.72
2018-02-10T07:35:09.722Z,35.13
2018-02-10T07:37:37.479Z,35.33
2018-02-10T07:40:05.191Z,27.42
2018-02-10T07:42:32.958Z,28.58
2018-02-10T07:45:00.634Z,31.67
2018-02-10T07:47:28.478Z,32.90
2018-02-10T07:49:56.150Z,29.87
2018-02-10T07:52:23.829Z,30.10
2018-02-10T07:54:51.542Z,29.65
2018-02-10T07:57:19.217Z,40.63
2018-02-10T07:59:46.935Z,29.87
2018-02-10T08:02:14.637Z,29.77
2018-02-10T08:04:42.317Z,26.00
2018-02-10T08:07:10.046Z,29.40
2018-02-10T08:09:37.759Z,24.27
2018-02-10T08:12:05.442Z,32.30
2018-02-10T08:14:33.154Z,29.67
2018-02-10T08:17:00.817Z,26.70
2018-02-10T08:19:28.522Z,32.38
2018-02-10T08:21:56.197Z,27.30
2018-02-10T08:24:23.894Z,32.22
2018-02-10T08:26:51.581Z,26.77
2018-02-10T08:29:19.287Z,28.95
2018-02-10T08:31:46.990Z,24.30
2018-02-10T08:34:14.607Z,35.90
2018-02-10T08:36:42.281Z,29.05
2018-02-10T08:39:09.977Z,30.65
2018-02-10T08:41:37.679Z,27.83
2018-02-10T08:44:05.410Z,31.08
2018-02-10T08:46:33.093Z,28.67
2018-02-10T08:49:00.758Z,26.73
2018-02-10T08:51:28.433Z,25.30
2018-02-10T08:53:56.163Z,26.48
2018-02-10T08:56:23.832Z,28.60
2018-02-10T08:58:51.545Z,26.02
2018-02-10T09:01:19.291Z,27.02
2018-02-10T09:03:47.002Z,29.23
2018-02-10T09:06:14.730Z,23.27
2018-02-10T09:08:42.518Z,19.35
2018-02-10T09:11:10.186Z,24.58
2018-02-10T09:13:37.902Z,27.42
2018-02-10T09:16:05.586Z,24.35
2018-02-10T09:18:33.313Z,24.42
2018-02-10T09:21:01.035Z,21.80
2018-02-10T09:23:28.753Z,24.23
2018-02-10T09:25:56.439Z,23.73
2018-02-10T09:28:24.152Z,24.55
2018-02-10T09:30:51.942Z,25.90
2018-02-10T09:33:19.663Z,22.55
2018-02-10T09:35:47.369Z,23.77
2018-02-10T09:38:15.146Z,22.65
2018-02-10T09:40:43.161Z,21.40
2018-02-10T09:43:10.861Z,22.20
2018-02-10T09:45:38.539Z,19.70
2018-02-10T09:48:06.263Z,22.62
2018-02-10T09:50:36.469Z,26.55
2018-02-10T09:53:04.217Z,19.12
2018-02-10T09:55:31.818Z,19.77
2018-02-10T09:57:59.549Z,22.33
2018-02-10T10:00:27.298Z,27.02
2018-02-10T10:02:55.001Z,28.00
2018-02-10T10:05:22.709Z,20.73
2018-02-10T10:07:50.421Z,27.70
2018-02-10T10:10:18.129Z,21.75
2018-02-10T10:12:45.960Z,25.80
2018-02-10T10:15:13.661Z,20.83
2018-02-10T10:17:41.334Z,20.93
2018-02-10T10:20:08.966Z,26.43
2018-02-10T10:22:36.770Z,22.20
2018-02-10T10:25:04.478Z,19.62
2018-02-10T10:27:32.172Z,22.90
2018-02-10T10:29:59.874Z,20.35
2018-02-10T10:32:27.487Z,20.07
2018-02-10T10:34:55.205Z,22.63
2018-02-10T10:37:22.961Z,22.60
2018-02-10T10:39:50.723Z,19.48
2018-02-10T10:42:18.409Z,22.35
2018-02-10T10:44:46.155Z,18.23
2018-02-10T10:47:13.895Z,18.92
2018-02-10T10:49:41.609Z,18.27
2018-02-10T10:52:09.363Z,16.35
2018-02-10T10:54:37.077Z,22.52
2018-02-10T10:57:04.783Z,18.80
2018-02-10T10:59:32.515Z,20.90
2018-02-10T11:02:00.187Z,19.37
2018-02-10T11:04:27.912Z,20.67
2018-02-10T11:06:55.582Z,23.80
2018-02-10T11:09:23.228Z,20.90
2018-02-10T11:11:50.925Z,16.98
2018-02-10T11:14:18.583Z,22.60
2018-02-10T11:16:46.270Z,22.42
2018-02-10T11:19:14.017Z,17.90
2018-02-10T11:21:41.690Z,20.85
2018-02-10T11:24:09.406Z,22.27
2018-02-10T11:26:37.077Z,19.95
2018-02-10T11:29:04.856Z,20.83
2018-02-10T11:31:32.556Z,22.90
2018-02-10T11:34:00.290Z,16.40
2018-02-10T11:36:27.992Z,20.80
2018-02-10T11:38:55.747Z,20.27
2018-02-10T11:41:23.447Z,20.00
2018-02-10T11:43:51.165Z,20.33
2018-02-10T11:46:18.730Z,13.37
2018-02-10T11:48:46.345Z,15.23
2018-02-10T11:51:13.970Z,17.73
2018-02-10T11:53:41.615Z,18.33
2018-02-10T11:56:09.333Z,18.52
2018-02-10T11:58:36.957Z,16.90
2018-02-10T12:01:04.617Z,15.63
2018-02-10T12:03:32.353Z,18.10
2018-02-10T12:06:00.086Z,16.33
2018-02-10T12:08:27.727Z,21.00
2018-02-10T12:10:55.361Z,17.60
2018-02-10T12:13:23.064Z,15.50
2018-02-10T12:15:50.766Z,15.83
2018-02-10T12:18:18.412Z,14.93
2018-02-10T12:20:46.031Z,17.00
2018-02-10T12:23:13.702Z,14.77
2018-02-10T12:25:41.322Z,14.40
2018-02-10T12:28:09.083Z,13.80
2018-02-10T12:30:36.689Z,15.70
2018-02-10T12:33:04.306Z,15.77
2018-02-10T12:35:31.983Z,15.70
2018-02-10T12:37:59.613Z,15.83
2018-02-10T12:40:27.359Z,16.83
2018-02-10T12:42:54.993Z,18.47
2018-02-10T12:45:22.601Z,19.70
2018-02-10T12:48:00.262Z,19.97
2018-02-10T12:50:27.854Z,19.47
2018-02-10T12:52:55.494Z,19.17
2018-02-10T12:55:23.107Z,15.13
2018-02-10T12:57:50.758Z,17.90
2018-02-10T13:00:18.453Z,18.60
2018-02-10T13:02:46.232Z,17.13
2018-02-10T13:05:13.939Z,19.13
2018-02-10T13:07:41.562Z,18.80
2018-02-10T13:10:09.229Z,15.77
2018-02-10T13:12:36.855Z,23.73
2018-02-10T13:15:04.451Z,21.67
2018-02-10T13:17:32.059Z,17.73
2018-02-10T13:19:59.746Z,19.57
2018-02-10T13:22:27.383Z,25.47
2018-02-10T13:24:55.018Z,22.37
2018-02-10T13:27:22.684Z,36.43
2018-02-10T13:29:50.310Z,43.30
2018-02-10T13:32:17.978Z,22.13
2018-02-10T13:34:45.604Z,24.90
2018-02-10T13:37:13.235Z,18.30
2018-02-10T13:39:40.883Z,23.27
2018-02-10T13:42:08.606Z,17.37
2018-02-10T13:44:36.214Z,21.50
2018-02-10T13:47:03.873Z,16.90
2018-02-10T13:49:31.584Z,18.10
2018-02-10T13:51:59.236Z,13.50
2018-02-10T13:54:26.907Z,14.83
2018-02-10T13:56:54.519Z,15.03
2018-02-10T13:59:22.246Z,15.13
2018-02-10T14:01:51.454Z,14.43
2018-02-10T14:04:19.069Z,15.83
2018-02-10T14:06:46.720Z,17.03
2018-02-10T14:09:14.340Z,18.00
2018-02-10T14:11:42.021Z,17.53
2018-02-10T14:14:09.658Z,13.53
2018-02-10T14:16:37.283Z,14.60
2018-02-10T14:19:04.932Z,14.90
2018-02-10T14:21:32.537Z,15.70
2018-02-10T14:24:00.177Z,19.03
2018-02-10T14:26:27.795Z,12.23
2018-02-10T14:28:55.464Z,16.83
2018-02-10T14:31:23.079Z,14.77
2018-02-10T14:33:50.729Z,16.77
2018-02-10T14:36:18.351Z,14.47
2018-02-10T14:38:46.006Z,15.67
2018-02-10T14:41:13.687Z,20.00
2018-02-10T14:43:41.334Z,18.73
2018-02-10T14:46:08.950Z,23.90
2018-02-10T14:48:36.654Z,22.47
2018-02-10T14:51:04.272Z,19.60
2018-02-10T14:53:31.905Z,24.43
2018-02-10T14:55:59.510Z,23.17
2018-02-10T14:58:27.149Z,22.63
2018-02-10T15:00:54.766Z,25.17
2018-02-10T15:03:22.465Z,21.70
2018-02-10T15:05:50.091Z,22.97
2018-02-10T15:08:17.756Z,25.73
2018-02-10T15:10:45.366Z,21.97
2018-02-10T15:13:13.077Z,22.00
2018-02-10T15:15:40.634Z,24.33
2018-02-10T15:18:08.286Z,20.60
2018-02-10T15:20:36.651Z,25.40
2018-02-10T15:23:04.329Z,27.80
2018-02-10T15:25:31.946Z,20.97
2018-02-10T15:27:59.613Z,22.30
2018-02-10T15:30:38.833Z,23.80
2018-02-10T15:33:18.087Z,24.13
2018-02-10T15:35:45.794Z,21.67
2018-02-10T15:38:13.422Z,25.83
2018-02-10T15:40:41.038Z,26.53
2018-02-10T15:43:08.707Z,29.10
2018-02-10T15:45:36.337Z,25.93
2018-02-10T15:48:03.993Z,22.33
2018-02-10T15:50:31.638Z,21.97
2018-02-10T15:52:59.311Z,30.93
2018-02-10T15:55:26.923Z,24.40
2018-02-10T15:57:54.646Z,26.43
2018-02-10T16:00:22.251Z,24.67
2018-02-10T16:02:49.901Z,25.20
2018-02-10T16:05:17.522Z,18.53
2018-02-10T16:07:45.191Z,18.57
2018-02-10T16:10:12.811Z,14.87
2018-02-10T16:12:40.582Z,16.17
2018-02-10T16:15:08.427Z,14.77
2018-02-10T16:17:36.083Z,17.37
2018-02-10T16:20:03.703Z,16.53
2018-02-10T16:22:31.371Z,17.60
2018-02-10T16:24:59.028Z,9.83
2018-02-10T16:27:26.683Z,12.60
2018-02-10T16:29:54.421Z,16.30
2018-02-10T16:32:22.134Z,19.07
2018-02-10T16:34:49.734Z,15.10
2018-02-10T16:37:17.559Z,16.70
2018-02-10T16:39:45.671Z,10.23
2018-02-10T16:42:13.320Z,12.70
2018-02-10T16:44:40.918Z,17.60
2018-02-10T16:47:08.564Z,13.03
2018-02-10T16:49:36.162Z,11.50
2018-02-10T16:52:03.790Z,9.93
2018-02-10T16:54:31.421Z,12.97
2018-02-10T16:56:59.063Z,8.20
2018-02-10T16:59:26.680Z,12.97
2018-02-10T17:01:54.409Z,9.80
2018-02-10T17:04:22.080Z,6.73
2018-02-10T17:06:49.699Z,9.83
2018-02-10T17:09:17.359Z,11.77
2018-02-10T17:11:45.078Z,8.93
2018-02-10T17:14:12.735Z,7.97
2018-02-10T17:16:40.356Z,9.67
2018-02-10T17:19:08.024Z,11.13
2018-02-10T17:21:35.637Z,13.70
2018-02-10T17:24:03.266Z,11.90
2018-02-10T17:26:30.858Z,10.10
2018-02-10T17:28:58.493Z,14.13
2018-02-10T17:31:26.174Z,12.00
2018-02-10T17:33:53.992Z,10.77
2018-02-10T17:36:21.623Z,12.63
2018-02-10T17:38:49.234Z,15.17
2018-02-10T17:41:16.891Z,13.60
2018-02-10T17:43:44.503Z,13.60
2018-02-10T17:46:12.146Z,13.67
2018-02-10T17:48:39.758Z,14.77
2018-02-10T17:51:07.517Z,15.63
2018-02-10T17:53:35.179Z,15.40
2018-02-10T17:56:02.916Z,17.43
2018-02-10T17:58:30.523Z,29.70
2018-02-10T18:00:58.165Z,17.23
2018-02-10T18:03:25.781Z,21.43
2018-02-10T18:05:53.421Z,18.23
2018-02-10T18:08:21.202Z,16.90
2018-02-10T18:10:48.846Z,21.60
2018-02-10T18:13:16.490Z,16.03
2018-02-10T18:15:44.130Z,18.17
2018-02-10T18:18:11.726Z,13.00
2018-02-10T18:20:39.418Z,10.80
2018-02-10T18:23:07.119Z,12.30
2018-02-10T18:25:34.760Z,20.03
2018-02-10T18:28:02.367Z,14.57
2018-02-10T18:30:30.108Z,18.73
2018-02-10T18:32:57.705Z,22.33
2018-02-10T18:35:25.356Z,26.90
2018-02-10T18:37:53.029Z,14.60
2018-02-10T18:40:20.683Z,17.17
2018-02-10T18:42:48.287Z,10.40
2018-02-10T18:45:15.931Z,9.33
2018-02-10T18:47:43.543Z,11.23
2018-02-10T18:50:11.272Z,10.35
2018-02-10T18:52:38.875Z,10.77
2018-02-10T18:55:06.492Z,8.07
2018-02-10T18:57:34.155Z,9.25
2018-02-10T19:00:01.778Z,8.30
2018-02-10T19:02:29.381Z,6.63
2018-02-10T19:04:57.054Z,9.00
2018-02-10T19:07:24.723Z,7.97
2018-02-10T19:09:52.425Z,7.00
2018-02-10T19:12:20.046Z,6.73
2018-02-10T19:14:47.726Z,40.87
2018-02-10T19:17:15.356Z,7.80
2018-02-10T19:19:42.973Z,6.93
2018-02-10T19:22:10.673Z,7.00
2018-02-10T19:24:38.354Z,8.20
2018-02-10T19:27:06.056Z,8.23
2018-02-10T19:29:33.709Z,6.60
2018-02-10T19:32:01.385Z,7.47
2018-02-10T19:34:29.067Z,7.68
2018-02-10T19:36:56.865Z,6.43
2018-02-10T19:39:24.547Z,6.45
2018-02-10T19:41:52.279Z,7.47
2018-02-10T19:44:19.906Z,7.97
2018-02-10T19:46:47.607Z,7.27
2018-02-10T19:49:15.219Z,5.87
2018-02-10T19:51:42.839Z,6.20
2018-02-10T19:54:10.505Z,9.30
2018-02-10T19:56:38.247Z,6.95
2018-02-10T19:59:05.930Z,6.43
2018-02-10T20:01:33.590Z,7.53
2018-02-10T20:04:01.219Z,6.00
2018-02-10T20:06:28.951Z,9.17
2018-02-10T20:08:56.646Z,5.53
2018-02-10T20:11:24.437Z,7.15
2018-02-10T20:13:52.093Z,7.30
2018-02-10T20:16:19.820Z,8.88
2018-02-10T20:18:47.453Z,9.80
2018-02-10T20:21:15.059Z,6.50
2018-02-10T20:23:42.717Z,3.90
2018-02-10T20:26:10.431Z,6.28
2018-02-10T20:28:38.113Z,5.20
2018-02-10T20:31:05.789Z,7.35
2018-02-10T20:33:33.638Z,6.07
2018-02-10T20:36:01.302Z,6.70
2018-02-10T20:38:29.018Z,4.70
2018-02-10T20:40:56.606Z,6.75
2018-02-10T20:43:24.499Z,13.75
2018-02-10T20:45:52.378Z,6.20
2018-02-10T20:48:20.013Z,5.60
2018-02-10T20:50:47.615Z,4.13
2018-02-10T20:53:15.328Z,5.68
2018-02-10T20:55:42.929Z,4.73
2018-02-10T20:58:10.579Z,4.70
2018-02-10T21:00:38.198Z,4.50
2018-02-10T21:03:05.830Z,4.40
2018-02-10T21:05:35.448Z,4.33
2018-02-10T21:08:03.227Z,4.20
2018-02-10T21:10:30.906Z,5.78
2018-02-10T21:12:58.538Z,5.47
2018-02-10T21:15:26.226Z,4.82
2018-02-10T21:17:53.847Z,4.10
2018-02-10T21:20:21.462Z,3.57
2018-02-10T21:22:49.094Z,5.70
2018-02-10T21:25:16.692Z,5.20
2018-02-10T21:27:44.470Z,4.35
2018-02-10T21:30:12.075Z,4.50
2018-02-10T21:32:39.709Z,4.17
2018-02-10T21:35:07.316Z,4.30
2018-02-10T21:37:34.942Z,4.13
2018-02-10T21:40:02.660Z,3.37
2018-02-10T21:42:30.372Z,5.07
2018-02-10T21:44:58.046Z,3.85
2018-02-10T21:47:25.673Z,4.17
2018-02-10T21:49:53.350Z,4.07
2018-02-10T21:52:20.987Z,4.03
2018-02-10T21:54:48.643Z,4.05
2018-02-10T21:57:16.366Z,5.43
2018-02-10T21:59:44.066Z,14.25
2018-02-10T22:02:11.725Z,5.73
2018-02-10T22:04:39.485Z,6.43
2018-02-10T22:07:07.205Z,3.70
2018-02-10T22:09:34.879Z,9.70
2018-02-10T22:12:02.505Z,4.87
2018-02-10T22:14:30.117Z,3.63
2018-02-10T22:16:57.819Z,4.18
2018-02-10T22:19:25.657Z,8.90
2018-02-10T22:21:53.362Z,6.53
2018-02-10T22:24:21.045Z,8.65
2018-02-10T22:26:48.688Z,4.13
2018-02-10T22:29:16.415Z,4.25
2018-02-10T22:31:44.071Z,10.67
2018-02-10T22:34:11.726Z,5.07
2018-02-10T22:36:39.390Z,8.33
2018-02-10T22:39:07.057Z,6.45
2018-02-10T22:41:34.757Z,5.95
2018-02-10T22:44:02.432Z,4.30
2018-02-10T22:46:30.199Z,5.25
2018-02-10T22:48:57.796Z,7.23
2018-02-10T22:51:25.520Z,6.45
2018-02-10T22:53:53.374Z,7.05
2018-02-10T22:56:21.011Z,5.00
2018-02-10T22:58:48.606Z,6.37
2018-02-10T23:01:17.102Z,4.10
2018-02-10T23:03:44.799Z,9.07
2018-02-10T23:06:12.603Z,3.75
2018-02-10T23:08:40.265Z,4.53
2018-02-10T23:11:07.944Z,8.27
2018-02-10T23:13:35.633Z,6.82
2018-02-10T23:16:03.307Z,5.18
2018-02-10T23:18:30.996Z,5.90
2018-02-10T23:20:58.680Z,6.55
2018-02-10T23:23:26.362Z,4.28
2018-02-10T23:25:54.026Z,3.40
2018-02-10T23:28:21.726Z,4.80
2018-02-10T23:30:49.318Z,9.43
2018-02-10T23:33:17.070Z,6.93
2018-02-10T23:35:44.736Z,13.75
2018-02-10T23:38:12.486Z,5.15
2018-02-10T23:40:40.162Z,7.68
2018-02-10T23:43:07.895Z,7.87
2018-02-10T23:45:35.469Z,8.20
2018-02-10T23:48:03.210Z,12.23
2018-02-10T23:50:30.897Z,6.07
2018-02-10T23:52:58.574Z,6.53
2018-02-10T23:55:26.277Z,7.35
2018-02-10T23:57:53.962Z,5.57
